Time;durP1;ratioP1;P1;durP2;ratioP2;P2;SDS_P1;SDS_P2;PMS_P1;PMS_P2;Temp;Humidity;BMP_temperature;BMP_pressure;BME280_temperature;BME280_humidity;BME280_pressure;Samples;Min_cycle;Max_cycle;Signal;HPM_P1;HPM_P2
2022/03/18 00:02:05;;;;;;;7.95;2.85;;;3.00;99.90;;;;;;5072842;28;20123;-83
2022/03/18 00:04:31;;;;;;;12.30;3.30;;;2.90;99.90;;;;;;5072551;28;20040;-86
2022/03/18 00:06:56;;;;;;;9.23;2.83;;;2.90;99.90;;;;;;5072242;28;20037;-76
2022/03/18 00:09:22;;;;;;;8.80;3.15;;;2.90;99.90;;;;;;5072569;28;20224;-85
2022/03/18 00:11:48;;;;;;;12.45;3.30;;;2.90;99.90;;;;;;5075935;28;20045;-85
2022/03/18 00:14:14;;;;;;;11.10;3.10;;;3.00;99.90;;;;;;5075065;28;20037;-84
2022/03/18 00:16:40;;;;;;;10.85;3.35;;;3.00;99.90;;;;;;5076190;28;20106;-81
2022/03/18 00:19:07;;;;;;;9.95;3.30;;;2.90;99.90;;;;;;5076138;28;20036;-83
2022/03/18 00:21:34;;;;;;;11.00;3.85;;;3.00;99.90;;;;;;5077715;28;20060;-84
2022/03/18 00:24:00;;;;;;;13.93;3.97;;;3.00;99.90;;;;;;5077581;28;20083;-86
2022/03/18 00:26:26;;;;;;;7.47;2.90;;;3.00;99.90;;;;;;5077843;28;20053;-81
2022/03/18 00:28:52;;;;;;;15.00;3.15;;;2.90;99.90;;;;;;5079849;28;20036;-77
2022/03/18 00:31:17;;;;;;;10.40;4.25;;;2.80;99.90;;;;;;5097894;28;20028;-72
2022/03/18 00:33:43;;;;;;;11.45;3.40;;;2.80;99.90;;;;;;5096033;28;20081;-73
2022/03/18 00:36:09;;;;;;;14.32;4.00;;;2.80;99.90;;;;;;5098316;28;20032;-73
2022/03/18 00:38:34;;;;;;;11.88;3.60;;;2.70;99.90;;;;;;5092008;28;20047;-83
2022/03/18 00:41:01;;;;;;;13.88;3.70;;;3.30;99.90;;;;;;5075870;28;20040;-85
2022/03/18 00:43:27;;;;;;;11.75;3.80;;;2.70;99.90;;;;;;5076749;28;20059;-82
2022/03/18 00:45:52;;;;;;;15.88;3.90;;;2.60;99.90;;;;;;5074767;28;20131;-78
2022/03/18 00:53:46;;;;;;;12.43;3.92;;;2.40;99.90;;;;;;5074799;28;20137;-81
2022/03/18 00:56:12;;;;;;;13.30;3.80;;;2.40;99.90;;;;;;5074795;28;20072;-82
2022/03/18 00:58:39;;;;;;;12.18;4.00;;;2.40;99.90;;;;;;5075685;28;20044;-81
2022/03/18 01:01:06;;;;;;;13.30;4.43;;;2.40;99.90;;;;;;5074337;28;20049;-78
2022/03/18 01:03:31;;;;;;;19.17;4.28;;;2.30;99.90;;;;;;5075027;28;20066;-85
2022/03/18 01:05:57;;;;;;;11.73;4.18;;;2.30;99.90;;;;;;5075608;28;20096;-84
2022/03/18 01:08:23;;;;;;;13.73;4.03;;;2.30;99.90;;;;;;5073999;28;20066;-84
2022/03/18 01:10:48;;;;;;;16.48;4.68;;;2.30;99.90;;;;;;5075098;28;20040;-84
2022/03/18 01:13:14;;;;;;;13.30;4.38;;;2.30;99.90;;;;;;5073878;28;20387;-85
2022/03/18 01:15:40;;;;;;;14.27;4.63;;;2.30;99.90;;;;;;5075125;28;20041;-86
2022/03/18 01:18:06;;;;;;;17.10;4.78;;;2.30;99.90;;;;;;5073393;28;20049;-86
2022/03/18 01:20:32;;;;;;;11.35;4.28;;;2.30;99.90;;;;;;5075846;28;20112;-84
2022/03/18 01:22:58;;;;;;;12.52;4.28;;;2.40;99.90;;;;;;5073587;28;20044;-84
2022/03/18 01:25:26;;;;;;;14.73;4.55;;;2.30;99.90;;;;;;5075140;28;20170;-83
2022/03/18 01:27:52;;;;;;;15.77;4.80;;;2.40;99.90;;;;;;5074896;28;20492;-86
2022/03/18 01:30:18;;;;;;;13.15;4.72;;;2.40;99.90;;;;;;5073707;28;20137;-83
2022/03/18 01:32:43;;;;;;;16.00;5.00;;;2.90;99.90;;;;;;5074257;28;20109;-83
2022/03/18 01:35:10;;;;;;;14.10;4.55;;;2.40;99.90;;;;;;5074402;28;20082;-83
2022/03/18 01:37:35;;;;;;;13.25;4.75;;;2.40;99.90;;;;;;5074982;28;20047;-80
2022/03/18 01:40:01;;;;;;;16.02;4.80;;;2.40;99.90;;;;;;5074517;28;20112;-78
2022/03/18 01:42:27;;;;;;;14.50;5.45;;;2.40;99.90;;;;;;5075079;28;20091;-82
2022/03/18 01:44:52;;;;;;;18.30;5.32;;;2.40;99.90;;;;;;5074782;28;20136;-81
2022/03/18 01:47:18;;;;;;;15.85;4.97;;;2.50;99.90;;;;;;5074629;28;20479;-84
2022/03/18 01:49:44;;;;;;;19.58;5.28;;;2.50;99.90;;;;;;5073810;28;20454;-84
2022/03/18 01:52:11;;;;;;;14.38;5.18;;;2.40;99.90;;;;;;5074301;28;20044;-85
2022/03/18 01:54:49;;;;;;;16.25;5.05;;;2.50;99.90;;;;;;5074177;28;20145;-86
2022/03/18 01:57:23;;;;;;;12.52;4.40;;;2.50;99.90;;;;;;5074151;28;20051;-81
2022/03/18 01:59:51;;;;;;;10.98;4.70;;;2.50;99.90;;;;;;5073404;28;20430;-81
2022/03/18 02:02:17;;;;;;;10.60;4.28;;;2.40;99.90;;;;;;5074268;28;20068;-82
2022/03/18 02:04:44;;;;;;;14.60;4.72;;;2.30;99.90;;;;;;5073701;28;20053;-85
2022/03/18 02:07:10;;;;;;;11.50;4.18;;;2.30;99.90;;;;;;5073824;28;20052;-85
2022/03/18 02:09:37;;;;;;;12.25;4.88;;;2.20;99.90;;;;;;5073657;28;20063;-83
2022/03/18 02:12:04;;;;;;;14.70;5.38;;;2.20;99.90;;;;;;5073933;28;20058;-85
2022/03/18 02:14:43;;;;;;;12.20;4.85;;;2.20;99.90;;;;;;5072855;28;20063;-85
2022/03/18 02:17:14;;;;;;;14.73;5.22;;;2.10;99.90;;;;;;5073968;28;20480;-85
2022/03/18 02:19:41;;;;;;;16.67;5.85;;;2.10;99.90;;;;;;5073253;28;20041;-83
2022/03/18 02:22:21;;;;;;;15.50;5.57;;;2.10;99.90;;;;;;5074516;28;20206;-83
2022/03/18 02:24:48;;;;;;;16.42;5.88;;;2.10;99.90;;;;;;5074905;28;20048;-85
2022/03/18 02:27:14;;;;;;;16.23;6.72;;;2.10;99.90;;;;;;5075447;28;20036;-79
2022/03/18 02:29:41;;;;;;;16.83;6.80;;;2.20;99.90;;;;;;5074843;28;20550;-83
2022/03/18 02:32:07;;;;;;;20.60;6.50;;;2.90;99.90;;;;;;5074435;28;20123;-85
2022/03/18 02:34:37;;;;;;;21.88;7.15;;;2.20;99.90;;;;;;5074914;28;20054;-86
2022/03/18 02:37:03;;;;;;;18.13;6.95;;;2.20;99.90;;;;;;5073700;28;20084;-84
2022/03/18 02:39:29;;;;;;;15.95;7.45;;;2.20;99.90;;;;;;5072802;28;20045;-79
2022/03/18 02:41:55;;;;;;;15.45;7.05;;;2.20;99.90;;;;;;5073738;28;20047;-84
2022/03/18 02:44:20;;;;;;;19.35;8.02;;;2.30;99.90;;;;;;5074618;28;20488;-85
2022/03/18 02:46:46;;;;;;;16.02;7.78;;;2.30;99.90;;;;;;5073194;28;20048;-84
2022/03/18 02:49:12;;;;;;;16.05;6.63;;;2.30;99.90;;;;;;5072820;28;20048;-85
2022/03/18 02:51:39;;;;;;;19.88;7.60;;;2.30;99.90;;;;;;5072742;28;20040;-85
2022/03/18 02:54:05;;;;;;;15.98;7.25;;;2.30;99.90;;;;;;5072912;28;20041;-80
2022/03/18 02:56:31;;;;;;;18.92;7.70;;;2.30;99.90;;;;;;5073232;28;20041;-85
2022/03/18 02:58:57;;;;;;;18.42;7.80;;;2.20;99.90;;;;;;5073090;28;20047;-85
2022/03/18 03:01:23;;;;;;;17.65;8.20;;;2.30;99.90;;;;;;5073068;28;20047;-81
2022/03/18 03:03:49;;;;;;;16.75;7.22;;;2.20;99.90;;;;;;5072966;28;20040;-85
2022/03/18 03:09:00;;;;;;;14.43;6.15;;;2.20;99.90;;;;;;5071114;28;20484;-84
2022/03/18 03:11:25;;;;;;;18.08;7.20;;;2.40;99.90;;;;;;5073143;28;20123;-83
2022/03/18 03:13:51;;;;;;;18.55;7.82;;;2.20;99.90;;;;;;5073281;28;20051;-78
2022/03/18 03:16:19;;;;;;;15.70;7.25;;;2.40;99.90;;;;;;5073413;28;20040;-77
2022/03/18 03:18:46;;;;;;;16.85;7.53;;;2.30;99.90;;;;;;5073071;28;20141;-83
2022/03/18 03:21:12;;;;;;;17.60;7.97;;;2.20;99.90;;;;;;5073342;28;20140;-84
2022/03/18 03:23:38;;;;;;;16.65;7.32;;;2.20;99.90;;;;;;5071967;28;20052;-84
2022/03/18 03:26:03;;;;;;;22.63;7.60;;;2.20;99.90;;;;;;5073333;28;20487;-86
2022/03/18 03:28:29;;;;;;;15.75;6.88;;;2.20;99.90;;;;;;5073266;28;20111;-86
2022/03/18 03:30:55;;;;;;;16.35;6.47;;;2.20;99.90;;;;;;5071939;28;20102;-86
2022/03/18 03:33:20;;;;;;;16.55;7.47;;;2.10;99.90;;;;;;5072003;28;20049;-85
2022/03/18 03:35:46;;;;;;;13.93;6.15;;;2.00;99.90;;;;;;5072936;28;20036;-85
2022/03/18 03:38:15;;;;;;;16.10;6.03;;;3.20;99.90;;;;;;5072464;28;20056;-84
2022/03/18 03:40:42;;;;;;;15.85;6.43;;;1.90;99.90;;;;;;5073456;28;20501;-83
2022/03/18 03:43:08;;;;;;;15.55;6.10;;;1.90;99.90;;;;;;5083053;28;20161;-85
2022/03/18 03:45:37;;;;;;;14.63;6.85;;;1.70;99.90;;;;;;5074173;28;20052;-83
2022/03/18 03:48:04;;;;;;;17.35;7.68;;;1.70;99.90;;;;;;5075562;28;20051;-84
2022/03/18 03:50:30;;;;;;;15.20;6.85;;;1.70;99.90;;;;;;5077044;28;20044;-84
2022/03/18 03:52:55;;;;;;;14.70;6.57;;;1.80;99.90;;;;;;5076776;28;20119;-84
2022/03/18 03:55:21;;;;;;;19.08;7.25;;;1.80;99.90;;;;;;5076339;28;20045;-83
2022/03/18 03:57:47;;;;;;;18.25;6.95;;;1.80;99.90;;;;;;5075455;28;20051;-85
2022/03/18 04:00:14;;;;;;;14.93;6.30;;;1.80;99.90;;;;;;5075749;28;20056;-85
2022/03/18 04:02:39;;;;;;;14.60;6.10;;;1.80;99.90;;;;;;5075803;28;20048;-85
2022/03/18 04:05:09;;;;;;;17.35;6.15;;;1.80;99.90;;;;;;5075089;28;20410;-84
2022/03/18 04:07:37;;;;;;;15.80;6.10;;;1.80;99.90;;;;;;5078061;28;20048;-80
2022/03/18 04:10:04;;;;;;;21.15;6.68;;;1.80;99.90;;;;;;5076861;28;20412;-85
2022/03/18 04:12:32;;;;;;;13.90;6.57;;;1.90;99.90;;;;;;5075811;28;20120;-83
2022/03/18 04:15:10;;;;;;;15.50;6.15;;;1.80;99.90;;;;;;5076423;28;20048;-85
2022/03/18 04:17:39;;;;;;;16.05;6.82;;;1.80;99.90;;;;;;5076958;28;20048;-85
2022/03/18 04:20:06;;;;;;;15.50;6.38;;;1.80;99.90;;;;;;5075072;28;20053;-85
2022/03/18 04:22:32;;;;;;;13.52;6.22;;;1.80;99.90;;;;;;5074920;28;20056;-85
2022/03/18 04:24:58;;;;;;;17.15;6.57;;;1.80;99.90;;;;;;5075167;28;20381;-85
2022/03/18 04:27:25;;;;;;;15.15;6.45;;;1.80;99.90;;;;;;5075982;28;20037;-80
2022/03/18 04:29:52;;;;;;;18.27;6.45;;;1.80;99.90;;;;;;5075004;28;20111;-74
2022/03/18 04:32:17;;;;;;;21.23;6.70;;;1.80;99.90;;;;;;5075755;28;20090;-73
2022/03/18 04:34:43;;;;;;;17.00;6.95;;;1.80;99.90;;;;;;5076378;28;20439;-75
2022/03/18 04:37:09;;;;;;;14.57;6.40;;;1.90;99.90;;;;;;5076249;28;20051;-76
2022/03/18 04:39:34;;;;;;;18.20;6.70;;;1.90;99.90;;;;;;5075043;28;20372;-82
2022/03/18 04:42:00;;;;;;;17.60;6.72;;;2.40;99.90;;;;;;5074995;28;20115;-78
2022/03/18 04:44:26;;;;;;;15.93;6.70;;;1.80;99.90;;;;;;5073736;28;20060;-73
2022/03/18 04:46:51;;;;;;;16.55;6.57;;;1.80;99.90;;;;;;5076053;28;20044;-84
2022/03/18 04:49:17;;;;;;;16.15;7.20;;;1.80;99.90;;;;;;5075681;28;20044;-82
2022/03/18 04:51:42;;;;;;;14.27;5.72;;;1.80;99.90;;;;;;5074682;28;20440;-84
2022/03/18 04:54:08;;;;;;;14.18;6.00;;;1.80;99.90;;;;;;5075270;28;20475;-75
2022/03/18 04:59:19;;;;;;;15.18;6.10;;;1.80;99.90;;;;;;5075487;28;20541;-83
2022/03/18 05:01:46;;;;;;;14.70;6.47;;;1.80;99.90;;;;;;5075752;28;20041;-85
2022/03/18 05:04:12;;;;;;;16.30;6.88;;;1.80;99.90;;;;;;5075204;28;20051;-84
2022/03/18 05:06:38;;;;;;;17.95;6.97;;;1.80;99.90;;;;;;5075512;28;20048;-75
2022/03/18 05:09:04;;;;;;;18.23;6.88;;;1.80;99.90;;;;;;5075360;28;20040;-76
2022/03/18 05:11:29;;;;;;;17.92;6.88;;;1.90;99.90;;;;;;5074113;28;20399;-80
2022/03/18 05:13:56;;;;;;;17.75;7.18;;;1.80;99.90;;;;;;5074082;28;20443;-85
2022/03/18 05:16:21;;;;;;;16.40;7.13;;;2.40;99.90;;;;;;5075016;28;20048;-75
2022/03/18 05:18:47;;;;;;;17.30;6.45;;;1.80;99.90;;;;;;5075637;28;20048;-79
2022/03/18 05:21:13;;;;;;;12.65;4.47;;;1.80;99.90;;;;;;5074514;28;20109;-76
2022/03/18 05:23:39;;;;;;;11.88;4.93;;;1.80;99.90;;;;;;5075001;28;20055;-85
2022/03/18 05:26:04;;;;;;;10.07;4.22;;;2.60;99.90;;;;;;5074824;28;20044;-85
2022/03/18 05:28:30;;;;;;;11.15;4.70;;;1.70;99.90;;;;;;5074062;28;20045;-85
2022/03/18 05:30:58;;;;;;;8.50;3.65;;;1.70;99.90;;;;;;5073894;28;20230;-85
2022/03/18 05:33:24;;;;;;;11.65;3.97;;;1.70;99.90;;;;;;5074199;28;20064;-74
2022/03/18 05:35:50;;;;;;;12.75;4.40;;;1.60;99.90;;;;;;5075083;28;20080;-75
2022/03/18 05:38:16;;;;;;;13.27;4.05;;;1.70;99.90;;;;;;5074754;28;20133;-77
2022/03/18 05:40:41;;;;;;;14.63;4.07;;;1.60;99.90;;;;;;5075252;28;20507;-84
2022/03/18 05:43:08;;;;;;;8.13;3.08;;;1.60;99.90;;;;;;5074226;28;20060;-84
2022/03/18 05:45:33;;;;;;;9.52;3.17;;;1.50;99.90;;;;;;5056066;28;20133;-85
2022/03/18 05:47:59;;;;;;;10.32;3.83;;;1.50;99.90;;;;;;5074582;28;20079;-76
2022/03/18 05:50:26;;;;;;;7.35;2.67;;;1.80;99.90;;;;;;5074771;28;20456;-76
2022/03/18 05:52:52;;;;;;;9.88;3.17;;;1.30;99.90;;;;;;5073690;28;20049;-77
2022/03/18 05:55:18;;;;;;;11.38;3.03;;;1.20;99.90;;;;;;5074991;28;20381;-83
2022/03/18 05:57:44;;;;;;;11.20;3.25;;;1.20;99.90;;;;;;5073406;28;20110;-82
2022/03/18 06:00:10;;;;;;;18.05;3.35;;;1.10;99.90;;;;;;5073312;28;20475;-86
2022/03/18 06:02:36;;;;;;;9.75;3.88;;;1.20;99.90;;;;;;5073541;28;20102;-75
2022/03/18 06:05:02;;;;;;;8.05;3.65;;;1.20;99.90;;;;;;5074894;28;20076;-86
2022/03/18 06:07:28;;;;;;;11.40;3.40;;;1.20;99.90;;;;;;5073735;28;20080;-78
2022/03/18 06:12:38;;;;;;;10.32;3.65;;;1.10;99.90;;;;;;5071999;28;20048;-82
2022/03/18 06:15:05;;;;;;;11.05;3.85;;;1.10;99.90;;;;;;5072262;28;20124;-77
2022/03/18 06:17:30;;;;;;;10.60;3.70;;;1.10;99.90;;;;;;5073541;28;20067;-85
2022/03/18 06:19:56;;;;;;;13.00;4.18;;;1.20;99.90;;;;;;5074600;28;20033;-78
2022/03/18 06:22:21;;;;;;;13.77;4.57;;;1.30;99.90;;;;;;5074019;28;20135;-78
2022/03/18 06:24:47;;;;;;;8.48;3.72;;;1.30;99.90;;;;;;5073936;28;20408;-78
2022/03/18 06:27:13;;;;;;;13.75;4.22;;;1.40;99.90;;;;;;5073254;28;20410;-82
2022/03/18 06:29:42;;;;;;;13.45;3.83;;;1.40;99.90;;;;;;5072939;28;20054;-85
2022/03/18 06:32:09;;;;;;;13.02;4.43;;;2.30;99.90;;;;;;5072514;28;20040;-77
2022/03/18 06:34:35;;;;;;;10.23;3.83;;;1.50;99.90;;;;;;5073551;28;20040;-73
2022/03/18 06:37:01;;;;;;;12.68;4.20;;;1.50;99.90;;;;;;5073291;28;20124;-73
2022/03/18 06:39:27;;;;;;;10.68;3.75;;;1.60;99.90;;;;;;5073430;28;20066;-79
2022/03/18 06:41:54;;;;;;;11.93;5.47;;;1.70;99.90;;;;;;5073630;28;20052;-82
2022/03/18 06:44:20;;;;;;;15.70;5.63;;;1.70;99.90;;;;;;5072369;28;20080;-84
2022/03/18 06:46:46;;;;;;;12.60;6.07;;;1.80;99.90;;;;;;5074868;28;20032;-79
2022/03/18 06:49:15;;;;;;;18.40;5.80;;;1.80;99.90;;;;;;5093872;28;20471;-82
2022/03/18 06:51:41;;;;;;;12.10;5.57;;;1.90;99.90;;;;;;5093829;28;20391;-86
2022/03/18 06:54:07;;;;;;;16.63;5.60;;;1.90;99.90;;;;;;5093925;28;20040;-82
2022/03/18 06:56:33;;;;;;;11.70;4.93;;;2.00;99.90;;;;;;5095034;28;20079;-83
2022/03/18 06:58:59;;;;;;;10.98;4.55;;;2.00;99.90;;;;;;5094157;28;20502;-83
2022/03/18 07:01:25;;;;;;;12.93;4.72;;;2.10;99.90;;;;;;5095372;28;20491;-77
2022/03/18 07:03:51;;;;;;;20.10;5.25;;;3.00;99.90;;;;;;5060348;28;20399;-75
2022/03/18 07:06:17;;;;;;;15.73;4.70;;;2.20;99.90;;;;;;5106908;28;20048;-75
2022/03/18 07:08:44;;;;;;;12.02;4.78;;;2.30;99.90;;;;;;5107949;28;20082;-77
2022/03/18 07:11:13;;;;;;;13.05;4.78;;;2.30;99.90;;;;;;5106565;28;20055;-74
2022/03/18 07:13:40;;;;;;;12.93;4.47;;;2.40;99.90;;;;;;5104373;28;20094;-76
2022/03/18 07:18:53;;;;;;;14.07;5.82;;;2.50;99.90;;;;;;5092396;28;20101;-83
2022/03/18 07:21:19;;;;;;;11.65;4.50;;;2.60;99.90;;;;;;5097904;28;20056;-83
2022/03/18 07:23:45;;;;;;;11.82;4.63;;;2.70;99.90;;;;;;5097669;28;20483;-83
2022/03/18 07:26:11;;;;;;;12.40;4.80;;;2.70;99.90;;;;;;5095964;28;20053;-79
2022/03/18 07:28:37;;;;;;;12.55;4.90;;;2.90;99.90;;;;;;5096865;28;20036;-85
2022/03/18 07:31:02;;;;;;;15.48;5.20;;;2.90;99.90;;;;;;5097007;28;20144;-82
2022/03/18 07:33:28;;;;;;;11.63;5.20;;;3.60;99.90;;;;;;5096819;28;20055;-86
2022/03/18 07:35:53;;;;;;;14.93;5.13;;;3.10;99.90;;;;;;5096590;28;20028;-76
2022/03/18 07:38:20;;;;;;;15.25;5.97;;;3.30;99.90;;;;;;5097033;28;20043;-77
2022/03/18 07:40:46;;;;;;;12.20;5.35;;;3.40;99.90;;;;;;5096894;28;20140;-76
2022/03/18 07:43:12;;;;;;;13.30;5.30;;;4.00;99.90;;;;;;5096867;28;20071;-85
2022/03/18 07:45:37;;;;;;;13.43;5.75;;;3.50;99.90;;;;;;5073929;28;20090;-77
2022/03/18 07:48:06;;;;;;;13.15;5.45;;;3.70;99.90;;;;;;5075116;28;20102;-79
2022/03/18 07:50:33;;;;;;;13.00;4.82;;;3.80;99.90;;;;;;5074131;28;20045;-76
2022/03/18 07:53:01;;;;;;;15.73;5.60;;;3.90;99.90;;;;;;5075060;28;20040;-81
2022/03/18 07:55:29;;;;;;;18.05;5.55;;;4.00;99.90;;;;;;5074961;28;20044;-78
2022/03/18 07:57:56;;;;;;;15.77;5.13;;;4.10;99.90;;;;;;5073549;28;20521;-78
2022/03/18 08:00:22;;;;;;;15.85;6.35;;;4.20;99.90;;;;;;5074101;28;20056;-79
2022/03/18 08:02:50;;;;;;;12.93;5.47;;;4.30;99.90;;;;;;5074351;28;20052;-80
2022/03/18 08:05:17;;;;;;;16.45;4.70;;;4.80;99.90;;;;;;5074601;28;20110;-78
2022/03/18 08:07:44;;;;;;;17.90;7.07;;;4.60;99.90;;;;;;5074767;28;20109;-80
2022/03/18 08:10:10;;;;;;;18.70;8.63;;;4.60;99.90;;;;;;5074348;28;20412;-84
2022/03/18 08:12:38;;;;;;;21.50;8.32;;;4.80;99.90;;;;;;5074652;28;20086;-74
2022/03/18 08:15:14;;;;;;;20.35;8.68;;;4.90;99.90;;;;;;5074342;28;20123;-75
2022/03/18 08:17:41;;;;;;;19.05;8.38;;;5.00;99.90;;;;;;5074578;28;20045;-77
2022/03/18 08:20:08;;;;;;;24.10;9.23;;;5.20;99.90;;;;;;5074659;28;20071;-79
2022/03/18 08:22:38;;;;;;;25.02;9.70;;;5.30;99.90;;;;;;5073743;28;20091;-75
2022/03/18 08:25:06;;;;;;;19.40;8.20;;;5.40;99.90;;;;;;5074835;28;20049;-84
2022/03/18 08:27:32;;;;;;;22.95;10.65;;;5.60;99.90;;;;;;5073604;28;20135;-73
2022/03/18 08:29:59;;;;;;;22.25;9.27;;;5.80;99.90;;;;;;5074343;28;20377;-80
2022/03/18 08:32:28;;;;;;;20.67;10.77;;;6.10;99.90;;;;;;5072949;28;20120;-82
2022/03/18 08:34:56;;;;;;;27.02;9.93;;;6.00;99.90;;;;;;5073250;28;20072;-79
2022/03/18 08:40:07;;;;;;;22.00;9.57;;;6.30;99.90;;;;;;5074190;28;20102;-80
2022/03/18 08:42:32;;;;;;;22.48;10.75;;;6.50;99.90;;;;;;5074299;28;20048;-78
2022/03/18 08:44:58;;;;;;;19.92;9.10;;;6.60;99.90;;;;;;5072552;28;20496;-83
2022/03/18 08:47:24;;;;;;;21.75;10.05;;;6.80;99.90;;;;;;5073150;28;20048;-82
2022/03/18 08:49:50;;;;;;;18.55;9.27;;;6.90;99.90;;;;;;5072916;28;20511;-83
2022/03/18 08:52:16;;;;;;;25.63;9.63;;;7.10;99.90;;;;;;5072674;28;20135;-80
2022/03/18 08:54:42;;;;;;;22.95;10.60;;;7.20;99.90;;;;;;5068912;28;20087;-81
2022/03/18 08:57:08;;;;;;;22.38;9.55;;;7.90;99.90;;;;;;5071466;28;20051;-76
2022/03/18 08:59:34;;;;;;;25.38;9.57;;;7.40;99.90;;;;;;5070232;28;20032;-75
2022/03/18 09:01:59;;;;;;;24.30;9.52;;;7.60;99.90;;;;;;5070259;28;20388;-76
2022/03/18 09:04:25;;;;;;;25.17;10.55;;;7.70;99.90;;;;;;5071356;28;20044;-78
2022/03/18 09:06:50;;;;;;;19.23;9.52;;;7.90;99.90;;;;;;5071875;28;20406;-83
2022/03/18 09:09:16;;;;;;;23.70;10.52;;;7.90;99.90;;;;;;5054267;28;20587;-81
2022/03/18 09:11:42;;;;;;;21.17;10.65;;;8.00;99.90;;;;;;5054372;28;20055;-73
2022/03/18 09:14:08;;;;;;;20.48;9.32;;;8.10;99.90;;;;;;5070988;28;20442;-80
2022/03/18 09:16:36;;;;;;;18.88;9.55;;;8.20;99.90;;;;;;5073484;28;20127;-79
2022/03/18 09:19:03;;;;;;;20.50;8.57;;;8.40;99.90;;;;;;5073774;28;20369;-80
2022/03/18 09:21:29;;;;;;;21.70;9.45;;;9.00;99.90;;;;;;5072599;28;20054;-80
2022/03/18 09:23:55;;;;;;;20.10;8.77;;;8.60;99.90;;;;;;5074906;28;20056;-80
2022/03/18 09:26:20;;;;;;;24.13;10.15;;;8.70;99.90;;;;;;5073861;28;20514;-80
2022/03/18 09:28:46;;;;;;;19.80;8.30;;;8.90;99.90;;;;;;5073591;28;20082;-80
2022/03/18 09:31:12;;;;;;;19.80;8.32;;;8.90;99.90;;;;;;5071258;28;20052;-81
2022/03/18 09:33:41;;;;;;;20.80;8.65;;;9.10;99.90;;;;;;5070345;28;20187;-80
2022/03/18 09:36:10;;;;;;;21.52;8.48;;;9.10;99.90;;;;;;5070881;28;20056;-77
2022/03/18 09:38:37;;;;;;;18.80;8.10;;;9.20;99.90;;;;;;5067063;28;20048;-80
2022/03/18 09:41:05;;;;;;;25.25;9.98;;;9.30;99.90;;;;;;5070221;28;20059;-78
2022/03/18 09:43:36;;;;;;;21.33;9.43;;;9.40;99.90;;;;;;5068894;28;20063;-78
2022/03/18 09:46:07;;;;;;;19.50;8.18;;;9.50;99.90;;;;;;5070469;28;20484;-79
2022/03/18 09:48:33;;;;;;;21.35;8.85;;;9.60;99.90;;;;;;5068406;28;20052;-78
2022/03/18 09:50:59;;;;;;;20.77;8.45;;;9.60;99.90;;;;;;5068726;28;20488;-78
2022/03/18 09:53:25;;;;;;;22.23;8.90;;;9.60;99.90;;;;;;5070916;28;20037;-76
2022/03/18 09:55:51;;;;;;;24.02;9.98;;;9.70;99.90;;;;;;5068118;28;20492;-80
2022/03/18 09:58:18;;;;;;;22.55;8.68;;;9.80;99.90;;;;;;5075761;28;20051;-79
2022/03/18 10:00:46;;;;;;;19.85;9.57;;;9.80;99.90;;;;;;5069678;28;20056;-79
2022/03/18 10:03:13;;;;;;;20.60;8.27;;;9.90;99.90;;;;;;5070808;28;20059;-75
2022/03/18 10:05:58;;;;;;;21.10;9.35;;;10.20;99.90;;;;;;5071174;28;20059;-80
2022/03/18 10:08:25;;;;;;;17.45;8.32;;;10.20;99.90;;;;;;5074781;28;20068;-81
2022/03/18 10:10:50;;;;;;;18.98;8.90;;;10.10;99.90;;;;;;5072782;28;20089;-81
2022/03/18 10:13:18;;;;;;;18.17;8.55;;;10.30;99.90;;;;;;5072805;28;20049;-79
2022/03/18 10:15:44;;;;;;;20.85;9.15;;;10.40;99.90;;;;;;5070112;28;20063;-79
2022/03/18 10:18:14;;;;;;;18.80;10.13;;;10.60;99.90;;;;;;5070051;28;20041;-74
2022/03/18 10:20:43;;;;;;;20.90;9.07;;;10.80;99.90;;;;;;5068282;28;20445;-77
2022/03/18 10:23:14;;;;;;;20.05;8.68;;;10.70;99.90;;;;;;5070766;28;20099;-76
2022/03/18 10:25:55;;;;;;;20.92;8.30;;;10.70;99.90;;;;;;5069166;28;20155;-80
2022/03/18 10:28:37;;;;;;;21.88;9.30;;;10.80;99.90;;;;;;5067561;28;20044;-78
2022/03/18 10:31:23;;;;;;;18.17;7.75;;;10.90;99.90;;;;;;5067720;28;20059;-77
2022/03/18 10:39:26;;;;;;;15.07;7.70;;;11.20;99.90;;;;;;5070570;28;20534;-81
2022/03/18 10:41:53;;;;;;;19.98;7.28;;;11.40;99.90;;;;;;5068244;28;20079;-81
2022/03/18 10:44:19;;;;;;;21.67;7.72;;;11.50;99.90;;;;;;5068164;28;20044;-77
2022/03/18 10:46:47;;;;;;;22.02;9.68;;;11.60;99.90;;;;;;5069657;28;20400;-80
2022/03/18 10:49:13;;;;;;;20.83;10.20;;;11.70;99.90;;;;;;5069630;28;20044;-81
2022/03/18 10:51:39;;;;;;;21.80;10.35;;;11.90;99.90;;;;;;5076263;28;20048;-81
2022/03/18 10:54:05;;;;;;;21.13;10.15;;;11.90;99.90;;;;;;5069499;28;20072;-79
2022/03/18 10:56:57;;;;;;;18.40;9.45;;;12.00;99.90;;;;;;5069315;28;20048;-80
2022/03/18 10:59:24;;;;;;;20.88;9.63;;;12.10;99.90;;;;;;5066237;28;20896;-81
2022/03/18 11:01:51;;;;;;;19.90;10.13;;;12.20;99.90;;;;;;5069551;28;20057;-77
2022/03/18 11:04:18;;;;;;;21.17;9.93;;;12.30;99.90;;;;;;5052528;28;20048;-78
2022/03/18 11:07:29;;;;;;;18.02;9.10;;;12.30;99.90;;;;;;5068600;28;20098;-75
2022/03/18 11:11:07;;;;;;;21.60;9.60;;;12.30;99.90;;;;;;5069136;28;20063;-78
2022/03/18 11:12:26;;;;;;;23.73;10.80;;;12.40;99.90;;;;;;5069198;28;20135;-77
2022/03/18 11:14:54;;;;;;;19.25;10.55;;;12.40;99.90;;;;;;5068836;28;20135;-77
2022/03/18 11:17:21;;;;;;;22.75;11.23;;;12.50;99.90;;;;;;5069653;28;20055;-78
2022/03/18 11:19:48;;;;;;;24.13;9.75;;;12.60;99.90;;;;;;5068268;28;20082;-77
2022/03/18 11:22:15;;;;;;;21.35;10.20;;;12.60;99.90;;;;;;5069965;28;20067;-79
2022/03/18 11:24:42;;;;;;;21.00;10.13;;;12.70;99.90;;;;;;5068355;28;20079;-80
2022/03/18 11:27:07;;;;;;;20.95;9.60;;;12.80;99.90;;;;;;5067529;28;20044;-78
2022/03/18 11:29:34;;;;;;;18.55;9.93;;;12.90;99.90;;;;;;5068415;28;20063;-78
2022/03/18 11:32:12;;;;;;;15.48;8.65;;;13.00;99.90;;;;;;5068797;28;20044;-79
2022/03/18 11:35:06;;;;;;;18.50;8.35;;;12.90;99.90;;;;;;5068565;28;20044;-79
2022/03/18 11:37:33;;;;;;;20.52;8.85;;;12.90;99.90;;;;;;5065283;28;20052;-75
2022/03/18 11:40:23;;;;;;;17.95;8.20;;;13.00;99.90;;;;;;5068198;28;20119;-80
2022/03/18 11:42:49;;;;;;;16.63;7.78;;;13.00;99.90;;;;;;5065934;28;20382;-79
2022/03/18 11:45:36;;;;;;;15.98;8.20;;;13.00;99.90;;;;;;5050746;28;20139;-81
2022/03/18 11:48:34;;;;;;;16.83;8.05;;;13.30;99.90;;;;;;5070723;28;20064;-81
2022/03/18 11:51:26;;;;;;;13.00;6.45;;;13.30;99.90;;;;;;5054235;28;20044;-81
2022/03/18 11:53:57;;;;;;;16.92;6.75;;;13.40;99.90;;;;;;5069072;28;20144;-77
2022/03/18 11:56:39;;;;;;;14.60;6.18;;;13.40;99.90;;;;;;5071225;28;20045;-81
2022/03/18 11:59:23;;;;;;;;;;;13.40;99.90;;;;;;5071334;28;20144;-83
2022/03/18 12:02:09;;;;;;;15.48;5.57;;;13.50;99.90;;;;;;5086164;28;19930;-81
2022/03/18 12:04:41;;;;;;;13.52;5.75;;;13.50;99.90;;;;;;5070767;28;20131;-80
2022/03/18 12:07:25;;;;;;;14.25;7.38;;;13.60;99.90;;;;;;5073758;28;20560;-83
2022/03/18 12:10:06;;;;;;;13.82;6.30;;;13.90;99.90;;;;;;5074543;28;20049;-82
2022/03/18 12:12:45;;;;;;;13.98;5.95;;;14.00;99.90;;;;;;5074172;28;20049;-83
2022/03/18 12:15:18;;;;;;;14.63;6.45;;;14.10;99.90;;;;;;5074994;28;20039;-77
2022/03/18 12:17:50;;;;;;;14.93;6.63;;;14.10;99.90;;;;;;5073687;28;20052;-78
2022/03/18 12:20:25;;;;;;;14.32;6.82;;;14.10;99.90;;;;;;5075309;28;20048;-76
2022/03/18 12:22:53;;;;;;;20.13;8.00;;;14.10;99.90;;;;;;5075053;28;20139;-76
2022/03/18 12:25:21;;;;;;;15.32;6.53;;;14.10;99.90;;;;;;5089039;28;20496;-75
2022/03/18 12:27:47;;;;;;;20.20;8.40;;;14.10;99.90;;;;;;5074031;28;20134;-76
2022/03/18 12:30:21;;;;;;;15.63;7.40;;;14.20;99.90;;;;;;5074437;28;20488;-76
2022/03/18 12:32:58;;;;;;;15.70;7.28;;;14.00;99.90;;;;;;5072241;28;20052;-75
2022/03/18 12:35:34;;;;;;;16.65;6.53;;;14.10;99.90;;;;;;5073939;28;20041;-76
2022/03/18 12:38:11;;;;;;;22.85;6.70;;;14.20;99.90;;;;;;5074075;28;20039;-75
2022/03/18 12:40:43;;;;;;;16.52;6.72;;;14.30;99.90;;;;;;5070823;28;20499;-77
2022/03/18 12:43:09;;;;;;;19.38;6.55;;;14.20;99.90;;;;;;5073601;28;20133;-77
2022/03/18 12:45:38;;;;;;;14.48;6.82;;;14.20;99.90;;;;;;5073809;28;20052;-75
2022/03/18 12:48:13;;;;;;;17.17;7.80;;;14.20;99.90;;;;;;5073405;28;20079;-75
2022/03/18 12:50:52;;;;;;;15.73;8.00;;;14.20;99.90;;;;;;5074027;28;20045;-75
2022/03/18 12:53:20;;;;;;;17.08;7.82;;;14.10;99.90;;;;;;5073650;28;20055;-74
2022/03/18 12:55:51;;;;;;;20.23;7.35;;;14.10;99.90;;;;;;5073902;28;20411;-76
2022/03/18 12:58:18;;;;;;;18.05;7.40;;;14.30;99.90;;;;;;5055733;28;20473;-76
2022/03/18 13:00:53;;;;;;;15.00;7.22;;;14.20;99.90;;;;;;5073375;28;20045;-76
2022/03/18 13:03:25;;;;;;;16.38;5.78;;;14.30;99.90;;;;;;5071694;28;20523;-77
2022/03/18 13:05:52;;;;;;;;;;;14.40;99.90;;;;;;5073517;28;20468;-76
2022/03/18 13:08:19;;;;;;;17.08;6.55;;;14.50;99.90;;;;;;5055835;28;19916;-76
2022/03/18 13:11:05;;;;;;;15.18;5.78;;;14.30;99.90;;;;;;5071718;28;20048;-72
2022/03/18 13:13:31;;;;;;;15.73;4.82;;;14.10;99.90;;;;;;5056252;28;20048;-81
2022/03/18 13:15:59;;;;;;;13.52;5.70;;;14.10;99.90;;;;;;5071824;28;20132;-81